< Typhoon 201714 2017 Season Typhoon 201716 >
Typhoon 201715 (SANVU)
General InformationTrack Information on Google MapsDetailed Wind InformationForecast History on Google MapsAccess Analytics MapList of All Images || NewsDisaster Info.WeblogTrackbackTyphoon FrontTwiphoonTyphoon Now!Typhoon ImaginationJMA Disaster Info. XMLResourceGoogle EarthGE AnimationAtom FeedGeoJSON
Detalied Best Track (Time Zone = UTC)
Year Month Day Hour Lat. Long. Pressure (hPa) Wind (kt) Class Image Chart
2017 8 26 18 17.8 147.0 1004 0 2 Image Chart
2017 8 27 00 18.2 147.0 1004 0 2 Image Chart
2017 8 27 06 18.6 147.0 1004 0 2 Image Chart
2017 8 27 12 18.9 147.1 1004 0 2 Image Chart
2017 8 27 18 19.1 147.2 1002 0 2 Image Chart
2017 8 28 00 19.4 147.2 1000 0 2 Image Chart
2017 8 28 06 19.7 147.3 994 35 3 Image Chart
2017 8 28 12 20.3 147.5 994 35 3 Image Chart
2017 8 28 18 20.9 147.6 992 40 3 Image Chart
2017 8 29 00 21.5 147.8 992 40 3 Image Chart
2017 8 29 06 22.7 147.9 992 40 3 Image Chart
2017 8 29 12 24.5 147.3 992 40 3 Image Chart
2017 8 29 18 26.0 145.9 985 45 3 Image Chart
2017 8 30 00 26.9 144.2 980 50 4 Image Chart
2017 8 30 03 26.9 143.5 975 55 4 Image Chart
2017 8 30 06 26.9 142.7 970 55 4 Image Chart
2017 8 30 09 26.9 142.2 970 55 4 Image Chart
2017 8 30 12 26.9 141.6 970 55 4 Image Chart
2017 8 30 15 26.8 141.4 970 55 4 Image Chart
2017 8 30 18 26.7 141.2 970 55 4 Image Chart
2017 8 30 21 26.7 141.5 970 55 4 Image Chart
2017 8 31 00 26.8 141.7 970 55 4 Image Chart
2017 8 31 03 27.0 141.9 970 55 4 Image Chart
2017 8 31 06 27.2 142.0 965 60 4 Image Chart
2017 8 31 09 27.4 142.1 965 60 4 Image Chart
2017 8 31 12 27.7 141.9 965 65 5 Image Chart
2017 8 31 15 27.9 141.6 965 65 5 Image Chart
2017 8 31 18 27.7 141.6 960 70 5 Image Chart
2017 8 31 21 27.5 141.8 955 75 5 Image Chart
2017 9 1 00 27.3 142.0 955 80 5 Image Chart
2017 9 1 03 27.3 142.6 955 80 5 Image Chart
2017 9 1 06 27.4 143.2 955 80 5 Image Chart
2017 9 1 09 27.7 143.5 955 80 5 Image Chart
2017 9 1 12 28.0 143.7 955 80 5 Image Chart
2017 9 1 18 28.5 144.0 960 70 5 Image Chart
2017 9 2 00 29.3 144.7 965 65 5 Image Chart
2017 9 2 06 31.3 146.0 965 65 5 Image Chart
2017 9 2 12 33.1 146.9 965 65 5 Image Chart
2017 9 2 18 35.4 148.3 965 65 5 Image Chart
2017 9 3 00 38.2 150.3 965 65 5 Image Chart
2017 9 3 06 41.7 152.9 965 65 5 Image Chart
2017 9 3 12 45.2 154.6 964 0 6 Image Chart
2017 9 3 18 48.1 157.3 964 0 6 Image Chart
2017 9 4 00 49.6 157.8 960 0 6 Image Chart
2017 9 4 06 50.7 158.4 960 0 6 Image Chart
2017 9 4 12 51.3 159.3 966 0 6 Image Chart
2017 9 4 18 51.9 161.0 972 0 6 Image Chart
2017 9 5 00 52.4 164.0 972 0 6 Image Chart
2017 9 5 06 52.8 167.2 972 0 6 Image Chart
2017 9 5 12 53.2 170.0 974 0 6 Image Chart
2017 9 5 18 53.4 172.8 974 0 6 Image Chart
2017 9 6 00 53.4 175.8 976 0 6 Image Chart
2017 9 6 06 53.2 179.0 978 0 6 Image Chart
2017 9 6 12 53.0 181.7 982 0 6 Image Chart
Japan Meteorological Agency Best Track Data | Correction Date : 2017-10-11
< Typhoon 201714 2017 Season Typhoon 201716 >

Help